Disclaimer

Please do not use the information listed here in-flight or in-navigation, as they are not provided to us by the airports but are provided by volunteers, so they might be outdated.

Search


Regions


Airport information page

Radio informations:
AMMAN TWR - 118.1 MHz
AMMAN APP - 128.9 MHz

Airport informations:
Latitude: 31° 58' 21.73" N
Longitude: 035° 59' 29.65" E
Elevation: 2555 feet - 779 meters
Operating hours: UNKNOWN
Operating agency: Military-civil joint use airport
Timezone: UTC+2(+3DT) - Dates notified by NOTAM
Fuel: Jet A1, without icing nhibitor.

100/130 MIL Spec, low lead, aviation gasoline (BLUE)

Runway information:
06/24 - 10745 x 148 feet< - >3275 x 45 meters

Recent METARs:
OJAM 210100Z 00000KT 5000 HZ NSC 13/09 Q1022 NOSIG
OJAM 210100Z 00000KT 5000 HZ NSC 13/09 Q1022 NOSIG
OJAM 210200Z 00000KT 5000 HZ NSC 12/10 Q1022 NOSIG

Airport on the map: